METAR Data
IDs: Format: Raw Decoded Include TAF

Data at: 0927 UTC 13 Aug 2022

EDDB 130920Z AUTO 04003KT 350V130 CAVOK 25/15 Q1019 RESHRA NOSIG